createdAt,value
2018-07-11T00:01:52.398Z,5.83
2018-07-11T00:04:21.640Z,5.93
2018-07-11T00:06:50.829Z,2.63
2018-07-11T00:09:20.064Z,3.27
2018-07-11T00:11:49.809Z,3.30
2018-07-11T00:14:18.980Z,4.43
2018-07-11T00:16:53.199Z,3.27
2018-07-11T00:19:22.396Z,4.73
2018-07-11T00:21:51.595Z,2.80
2018-07-11T00:24:20.818Z,2.80
2018-07-11T00:26:50.028Z,3.10
2018-07-11T00:29:19.220Z,3.07
2018-07-11T00:31:48.460Z,3.20
2018-07-11T00:34:17.740Z,4.30
2018-07-11T00:36:46.967Z,3.20
2018-07-11T00:39:16.312Z,3.47
2018-07-11T00:41:45.556Z,3.40
2018-07-11T00:44:15.092Z,4.03
2018-07-11T00:46:44.415Z,3.70
2018-07-11T00:49:13.618Z,4.17
2018-07-11T00:51:42.867Z,3.73
2018-07-11T00:54:12.110Z,4.10
2018-07-11T00:56:41.728Z,4.00
2018-07-11T00:59:14.173Z,4.30
2018-07-11T01:01:43.471Z,5.47
2018-07-11T01:04:12.758Z,4.83
2018-07-11T01:06:41.997Z,4.30
2018-07-11T01:09:11.221Z,4.07
2018-07-11T01:11:40.451Z,6.63
2018-07-11T01:14:09.667Z,4.30
2018-07-11T01:16:38.872Z,4.97
2018-07-11T01:19:09.527Z,4.50
2018-07-11T01:21:39.030Z,3.90
2018-07-11T01:24:08.232Z,7.57
2018-07-11T01:26:38.765Z,4.43
2018-07-11T01:29:08.575Z,5.90
2018-07-11T01:31:37.797Z,5.20
2018-07-11T01:34:06.967Z,4.47
2018-07-11T01:36:36.195Z,5.00
2018-07-11T01:39:05.561Z,6.30
2018-07-11T01:41:34.800Z,4.60
2018-07-11T01:44:04.022Z,5.07
2018-07-11T01:46:36.759Z,6.97
2018-07-11T01:49:06.333Z,4.67
2018-07-11T01:51:46.538Z,5.57
2018-07-11T01:54:15.711Z,4.30
2018-07-11T01:56:44.897Z,6.03
2018-07-11T01:59:14.106Z,4.87
2018-07-11T02:01:43.476Z,5.63
2018-07-11T02:04:13.169Z,4.53
2018-07-11T02:06:42.929Z,6.03
2018-07-11T02:09:12.148Z,4.27
2018-07-11T02:11:41.418Z,4.43
2018-07-11T02:14:10.624Z,4.73
2018-07-11T02:16:39.823Z,6.67
2018-07-11T02:19:09.295Z,6.00
2018-07-11T02:21:38.581Z,4.70
2018-07-11T02:24:07.781Z,4.30
2018-07-11T02:26:37.026Z,5.17
2018-07-11T02:29:06.212Z,8.17
2018-07-11T02:31:35.515Z,7.10
2018-07-11T02:34:04.732Z,4.43
2018-07-11T02:36:33.924Z,5.70
2018-07-11T02:39:03.296Z,5.67
2018-07-11T02:41:32.614Z,5.63
2018-07-11T02:44:01.818Z,3.90
2018-07-11T02:46:36.452Z,5.07
2018-07-11T02:49:05.726Z,7.53
2018-07-11T02:51:35.424Z,5.03
2018-07-11T02:54:04.675Z,4.03
2018-07-11T02:56:33.880Z,5.90
2018-07-11T02:59:03.082Z,7.23
2018-07-11T03:01:32.272Z,5.30
2018-07-11T03:04:01.465Z,4.67
2018-07-11T03:06:30.664Z,4.43
2018-07-11T03:08:59.845Z,5.23
2018-07-11T03:11:29.192Z,5.73
2018-07-11T03:13:58.421Z,13.33
2018-07-11T03:16:27.609Z,6.83
2018-07-11T03:18:56.808Z,6.60
2018-07-11T03:21:26.110Z,7.40
2018-07-11T03:23:55.611Z,7.10
2018-07-11T03:26:24.785Z,8.00
2018-07-11T03:28:54.013Z,10.80
2018-07-11T03:31:23.297Z,4.33
2018-07-11T03:33:52.468Z,4.00
2018-07-11T03:36:21.663Z,4.43
2018-07-11T03:38:50.878Z,5.50
2018-07-11T03:41:20.160Z,5.13
2018-07-11T03:43:49.399Z,4.77
2018-07-11T03:46:18.631Z,5.20
2018-07-11T03:48:47.953Z,7.10
2018-07-11T03:51:17.151Z,3.77
2018-07-11T03:53:46.332Z,6.93
2018-07-11T03:56:15.586Z,6.60
2018-07-11T03:58:44.752Z,4.83
2018-07-11T04:01:15.046Z,7.03
2018-07-11T04:03:44.831Z,5.97
2018-07-11T04:06:14.054Z,8.20
2018-07-11T04:08:43.225Z,7.70
2018-07-11T04:11:12.426Z,14.37
2018-07-11T04:13:41.603Z,7.57
2018-07-11T04:16:10.855Z,8.20
2018-07-11T04:18:40.182Z,14.97
2018-07-11T04:21:09.419Z,8.80
2018-07-11T04:23:38.644Z,4.70
2018-07-11T04:26:07.815Z,7.13
2018-07-11T04:28:37.460Z,10.83
2018-07-11T04:31:06.988Z,4.77
2018-07-11T04:33:36.217Z,6.60
2018-07-11T04:36:05.455Z,8.63
2018-07-11T04:38:34.660Z,12.23
2018-07-11T04:41:03.910Z,6.60
2018-07-11T04:43:33.147Z,9.70
2018-07-11T04:46:02.353Z,6.77
2018-07-11T04:48:31.777Z,8.60
2018-07-11T04:51:00.559Z,6.30
2018-07-11T04:53:29.954Z,5.07
2018-07-11T04:56:02.847Z,8.10
2018-07-11T04:58:32.648Z,5.73
2018-07-11T05:01:02.352Z,6.17
2018-07-11T05:03:31.653Z,6.77
2018-07-11T05:06:00.953Z,8.17
2018-07-11T05:08:30.285Z,5.57
2018-07-11T05:10:59.574Z,4.47
2018-07-11T05:13:28.906Z,7.63
2018-07-11T05:15:58.262Z,4.20
2018-07-11T05:18:27.595Z,5.63
2018-07-11T05:20:56.935Z,5.77
2018-07-11T05:23:26.243Z,5.37
2018-07-11T05:25:55.506Z,3.13
2018-07-11T05:28:24.804Z,6.30
2018-07-11T05:30:54.159Z,3.93
2018-07-11T05:33:23.512Z,4.43
2018-07-11T05:35:52.871Z,6.60
2018-07-11T05:38:22.170Z,3.20
2018-07-11T05:40:51.647Z,3.53
2018-07-11T05:43:20.996Z,3.63
2018-07-11T05:45:50.199Z,4.27
2018-07-11T05:48:19.454Z,3.57
2018-07-11T05:50:48.706Z,5.60
2018-07-11T05:53:18.101Z,4.50
2018-07-11T05:55:47.473Z,2.67
2018-07-11T05:58:16.779Z,4.40
2018-07-11T06:00:46.003Z,5.67
2018-07-11T06:03:15.327Z,3.13
2018-07-11T06:05:44.200Z,4.83
2018-07-11T06:08:13.456Z,4.13
2018-07-11T06:10:42.684Z,2.60
2018-07-11T06:13:11.971Z,3.00
2018-07-11T06:15:41.265Z,3.57
2018-07-11T06:18:10.563Z,5.13
2018-07-11T06:20:39.814Z,2.70
2018-07-11T06:23:09.176Z,3.97
2018-07-11T06:25:38.467Z,3.03
2018-07-11T06:28:07.777Z,3.03
2018-07-11T06:30:37.007Z,3.53
2018-07-11T06:33:06.468Z,3.07
2018-07-11T06:35:35.697Z,2.30
2018-07-11T06:38:05.355Z,3.33
2018-07-11T06:40:34.661Z,2.30
2018-07-11T06:43:03.983Z,2.43
2018-07-11T06:45:33.279Z,2.30
2018-07-11T06:48:02.599Z,2.10
2018-07-11T06:50:31.920Z,2.40
2018-07-11T06:53:01.224Z,3.13
2018-07-11T06:55:30.491Z,2.60
2018-07-11T06:58:00.004Z,2.27
2018-07-11T07:00:29.385Z,3.30
2018-07-11T07:02:58.660Z,4.00
2018-07-11T07:05:27.890Z,3.03
2018-07-11T07:07:57.221Z,2.23
2018-07-11T07:10:26.871Z,3.27
2018-07-11T07:12:56.256Z,3.13
2018-07-11T07:15:25.488Z,3.67
2018-07-11T07:17:54.832Z,2.40
2018-07-11T07:20:24.129Z,2.10
2018-07-11T07:22:53.912Z,2.43
2018-07-11T07:25:23.113Z,2.37
2018-07-11T07:27:52.327Z,2.37
2018-07-11T07:30:21.684Z,2.37
2018-07-11T07:32:51.017Z,2.97
2018-07-11T07:35:20.660Z,2.40
2018-07-11T07:37:49.955Z,3.47
2018-07-11T07:40:19.139Z,2.03
2018-07-11T07:42:48.695Z,1.93
2018-07-11T07:45:18.132Z,2.80
2018-07-11T07:47:47.837Z,1.70
2018-07-11T07:50:17.684Z,1.87
2018-07-11T07:52:47.172Z,2.47
2018-07-11T07:55:16.352Z,2.90
2018-07-11T07:57:45.653Z,1.90
2018-07-11T08:00:14.888Z,2.13
2018-07-11T08:02:44.259Z,3.20
2018-07-11T08:05:13.630Z,2.77
2018-07-11T08:07:42.934Z,3.13
2018-07-11T08:10:12.258Z,2.57
2018-07-11T08:12:41.709Z,3.70
2018-07-11T08:15:11.275Z,2.17
2018-07-11T08:17:40.539Z,2.00
2018-07-11T08:20:09.865Z,2.27
2018-07-11T08:23:18.396Z,2.57
2018-07-11T08:25:59.900Z,1.83
2018-07-11T08:30:00.821Z,2.00
2018-07-11T08:34:53.505Z,1.80
2018-07-11T08:37:36.377Z,1.83
2018-07-11T08:40:46.053Z,2.23
2018-07-11T08:45:37.151Z,1.90
2018-07-11T08:50:24.405Z,2.20
2018-07-11T08:53:07.905Z,1.80
2018-07-11T08:57:56.927Z,3.77
2018-07-11T09:02:44.662Z,1.70
2018-07-11T09:07:35.503Z,2.17
2018-07-11T09:11:49.077Z,2.07
2018-07-11T09:14:49.553Z,2.00
2018-07-11T09:19:33.819Z,2.90
2018-07-11T09:22:14.115Z,1.73
2018-07-11T09:24:44.857Z,2.10
2018-07-11T09:27:14.563Z,2.60
2018-07-11T09:29:44.697Z,1.63
2018-07-11T09:32:14.579Z,2.07
2018-07-11T09:34:44.394Z,2.17
2018-07-11T09:37:13.812Z,1.80
2018-07-11T09:39:43.719Z,2.83
2018-07-11T09:42:13.056Z,2.47
2018-07-11T09:44:42.431Z,1.90
2018-07-11T09:47:16.918Z,2.27
2018-07-11T09:49:46.355Z,5.60
2018-07-11T09:52:15.776Z,4.07
2018-07-11T09:54:45.105Z,4.10
2018-07-11T09:57:14.468Z,2.70
2018-07-11T09:59:43.251Z,4.50
2018-07-11T10:02:12.704Z,29.73
2018-07-11T10:04:42.584Z,262.43
2018-07-11T10:07:12.766Z,289.87
2018-07-11T10:09:42.307Z,811.57
2018-07-11T10:12:11.831Z,526.57
2018-07-11T10:14:41.129Z,463.67
2018-07-11T10:17:10.501Z,388.50
2018-07-11T10:19:39.766Z,416.43
2018-07-11T10:22:09.212Z,363.43
2018-07-11T10:24:38.575Z,354.43
2018-07-11T10:27:08.018Z,327.37
2018-07-11T10:29:37.496Z,326.67
2018-07-11T10:32:06.883Z,310.33
2018-07-11T10:34:36.206Z,296.90
2018-07-11T10:37:05.590Z,287.97
2018-07-11T10:39:34.874Z,292.27
2018-07-11T10:42:04.229Z,274.73
2018-07-11T10:44:33.625Z,271.27
2018-07-11T10:47:11.030Z,257.00
2018-07-11T10:49:40.634Z,260.03
2018-07-11T10:52:10.627Z,257.03
2018-07-11T10:54:40.157Z,241.90
2018-07-11T10:57:09.460Z,231.07
2018-07-11T10:59:38.355Z,236.40
2018-07-11T11:02:07.126Z,223.63
2018-07-11T11:04:36.563Z,218.47
2018-07-11T11:07:06.021Z,213.50
2018-07-11T11:09:35.385Z,207.63
2018-07-11T11:12:04.859Z,205.50
2018-07-11T11:14:34.240Z,200.87
2018-07-11T11:17:03.577Z,194.40
2018-07-11T11:19:32.895Z,196.10
2018-07-11T11:22:02.500Z,187.03
2018-07-11T11:24:32.138Z,188.13
2018-07-11T11:27:01.415Z,185.93
2018-07-11T11:29:30.822Z,179.87
2018-07-11T11:32:00.252Z,177.17
2018-07-11T11:34:29.534Z,173.57
2018-07-11T11:36:58.865Z,172.37
2018-07-11T11:39:28.236Z,167.73
2018-07-11T11:41:57.759Z,168.23
2018-07-11T11:44:27.224Z,165.50
2018-07-11T11:47:02.833Z,165.17
2018-07-11T11:49:32.668Z,161.80
2018-07-11T11:52:02.129Z,157.90
2018-07-11T11:54:31.521Z,159.93
2018-07-11T11:57:00.869Z,152.63
2018-07-11T11:59:30.230Z,155.37
2018-07-11T12:01:59.551Z,150.93
2018-07-11T12:04:28.818Z,149.67
2018-07-11T12:06:58.149Z,149.13
2018-07-11T12:09:27.502Z,150.57
2018-07-11T12:11:59.852Z,145.10
2018-07-11T12:14:29.576Z,143.47
2018-07-11T12:16:58.318Z,143.10
2018-07-11T12:19:27.557Z,142.63
2018-07-11T12:21:56.951Z,136.97
2018-07-11T12:24:26.325Z,139.53
2018-07-11T12:26:55.692Z,135.73
2018-07-11T12:29:25.407Z,136.10
2018-07-11T12:31:54.802Z,134.07
2018-07-11T12:34:24.135Z,131.83
2018-07-11T12:36:54.864Z,132.20
2018-07-11T12:39:24.196Z,128.77
2018-07-11T12:41:53.655Z,131.73
2018-07-11T12:44:23.005Z,128.63
2018-07-11T12:46:52.373Z,126.40
2018-07-11T12:49:21.805Z,121.37
2018-07-11T12:51:51.234Z,120.50
2018-07-11T12:54:20.644Z,122.33
2018-07-11T12:56:49.960Z,119.20
2018-07-11T12:59:19.427Z,115.97
2018-07-11T13:01:48.903Z,111.43
2018-07-11T13:04:18.254Z,111.30
2018-07-11T13:06:47.583Z,113.43
2018-07-11T13:09:17.027Z,110.50
2018-07-11T13:11:46.433Z,106.23
2018-07-11T13:14:15.765Z,106.10
2018-07-11T13:16:45.383Z,105.23
2018-07-11T13:19:14.691Z,103.93
2018-07-11T13:21:44.979Z,103.17
2018-07-11T13:24:14.298Z,99.93
2018-07-11T13:26:43.954Z,98.77
2018-07-11T13:29:13.359Z,106.27
2018-07-11T13:31:42.872Z,97.50
2018-07-11T13:34:12.768Z,111.77
2018-07-11T13:36:42.216Z,92.73
2018-07-11T13:39:16.799Z,96.07
2018-07-11T13:41:47.132Z,99.43
2018-07-11T13:44:16.959Z,91.83
2018-07-11T13:46:46.667Z,90.23
2018-07-11T13:49:16.103Z,89.53
2018-07-11T13:51:45.566Z,86.67
2018-07-11T13:54:14.960Z,79.60
2018-07-11T13:56:44.649Z,80.27
2018-07-11T13:59:14.024Z,84.73
2018-07-11T14:01:43.444Z,77.57
2018-07-11T14:04:12.850Z,84.27
2018-07-11T14:06:42.240Z,80.27
2018-07-11T14:09:11.693Z,75.43
2018-07-11T14:11:41.062Z,76.53
2018-07-11T14:14:10.465Z,78.03
2018-07-11T14:16:40.563Z,75.07
2018-07-11T14:19:11.220Z,71.20
2018-07-11T14:21:41.660Z,73.37
2018-07-11T14:24:11.981Z,68.40
2018-07-11T14:26:42.218Z,65.93
2018-07-11T14:29:11.675Z,70.87
2018-07-11T14:31:41.047Z,65.50
2018-07-11T14:34:10.852Z,68.60
2018-07-11T14:36:40.225Z,62.07
2018-07-11T14:39:09.681Z,67.33
2018-07-11T14:41:39.088Z,63.40
2018-07-11T14:44:08.423Z,64.60
2018-07-11T14:46:37.736Z,62.03
2018-07-11T14:49:07.116Z,61.00
2018-07-11T14:51:36.752Z,60.60
2018-07-11T14:54:06.612Z,55.97
2018-07-11T14:56:36.253Z,58.10
2018-07-11T14:59:05.468Z,57.73
2018-07-11T15:01:34.772Z,60.50
2018-07-11T15:04:04.128Z,54.97
2018-07-11T15:06:33.526Z,56.77
2018-07-11T15:09:03.265Z,59.00
2018-07-11T15:11:32.646Z,58.40
2018-07-11T15:14:02.008Z,56.93
2018-07-11T15:16:31.358Z,52.90
2018-07-11T15:19:01.202Z,50.30
2018-07-11T15:21:30.732Z,52.13
2018-07-11T15:24:00.135Z,55.63
2018-07-11T15:26:28.890Z,51.00
2018-07-11T15:28:58.530Z,47.77
2018-07-11T15:31:27.308Z,49.53
2018-07-11T15:33:56.686Z,46.83
2018-07-11T15:36:25.972Z,47.97
2018-07-11T15:38:55.266Z,50.40
2018-07-11T15:41:24.676Z,48.60
2018-07-11T15:43:54.091Z,46.83
2018-07-11T15:46:23.500Z,43.97
2018-07-11T15:48:52.861Z,43.97
2018-07-11T15:51:22.293Z,44.10
2018-07-11T15:53:51.694Z,42.63
2018-07-11T15:56:21.127Z,42.30
2018-07-11T15:58:54.381Z,41.37
2018-07-11T16:01:23.807Z,41.70
2018-07-11T16:03:54.028Z,42.73
2018-07-11T16:06:23.468Z,40.33
2018-07-11T16:08:52.968Z,39.27
2018-07-11T16:11:22.434Z,39.40
2018-07-11T16:13:51.756Z,38.57
2018-07-11T16:16:21.126Z,37.33
2018-07-11T16:18:50.707Z,38.67
2018-07-11T16:21:20.172Z,37.33
2018-07-11T16:23:49.389Z,36.80
2018-07-11T16:26:18.187Z,36.60
2018-07-11T16:28:47.745Z,35.40
2018-07-11T16:31:17.159Z,36.97
2018-07-11T16:34:07.658Z,36.37
2018-07-11T16:36:37.093Z,35.17
2018-07-11T16:39:06.517Z,33.43
2018-07-11T16:42:09.297Z,33.43
2018-07-11T16:44:38.891Z,33.10
2018-07-11T16:47:08.453Z,32.93
2018-07-11T16:49:40.817Z,31.87
2018-07-11T16:52:10.014Z,32.83
2018-07-11T16:54:39.189Z,31.77
2018-07-11T16:57:09.306Z,31.57
2018-07-11T16:59:50.011Z,30.03
2018-07-11T17:02:24.248Z,29.13
2018-07-11T17:04:55.370Z,31.67
2018-07-11T17:07:26.332Z,28.30
2018-07-11T17:09:57.352Z,28.17
2018-07-11T17:12:26.810Z,26.80
2018-07-11T17:15:01.927Z,27.97
2018-07-11T17:17:35.937Z,30.17
2018-07-11T17:20:10.866Z,30.47
2018-07-11T17:22:53.764Z,27.00
2018-07-11T17:25:23.295Z,26.73
2018-07-11T17:28:00.504Z,32.87
2018-07-11T17:30:32.140Z,28.37
2018-07-11T17:33:02.955Z,28.80
2018-07-11T17:35:32.624Z,33.20
2018-07-11T17:38:05.789Z,30.87
2018-07-11T17:40:40.348Z,35.80
2018-07-11T17:43:12.702Z,28.67
2018-07-11T17:45:44.437Z,26.90
2018-07-11T17:48:21.703Z,26.53
2018-07-11T17:50:53.260Z,24.77
2018-07-11T17:53:23.711Z,22.53
2018-07-11T17:56:09.633Z,26.53
2018-07-11T17:58:53.268Z,23.73
2018-07-11T18:01:37.536Z,24.53
2018-07-11T18:04:16.857Z,22.07
2018-07-11T18:06:54.553Z,22.60
2018-07-11T18:09:24.465Z,21.13
2018-07-11T18:11:59.820Z,21.13
2018-07-11T18:14:51.050Z,20.77
2018-07-11T18:17:32.752Z,19.30
2018-07-11T18:20:12.070Z,19.77
2018-07-11T18:23:47.796Z,21.23
2018-07-11T18:26:25.515Z,22.33
2018-07-11T18:29:04.456Z,17.93
2018-07-11T18:32:47.653Z,18.37
2018-07-11T18:35:39.585Z,16.23
2018-07-11T18:39:25.148Z,9.87
2018-07-11T18:42:05.323Z,7.07
2018-07-11T18:44:45.513Z,7.97
2018-07-11T18:47:38.133Z,5.20
2018-07-11T18:51:15.575Z,5.57
2018-07-11T18:53:53.570Z,8.57
2018-07-11T18:56:36.598Z,8.83
2018-07-11T19:00:13.381Z,6.03
2018-07-11T19:03:02.438Z,6.23
2018-07-11T19:07:47.738Z,7.07
2018-07-11T19:10:21.859Z,8.27
2018-07-11T19:12:59.103Z,4.70
2018-07-11T19:18:44.479Z,4.10
2018-07-11T19:21:18.590Z,6.57
2018-07-11T19:24:02.556Z,4.43
2018-07-11T19:26:46.887Z,8.43
2018-07-11T19:29:53.424Z,6.27
2018-07-11T19:32:32.305Z,6.63
2018-07-11T19:36:11.042Z,5.60
2018-07-11T19:38:46.900Z,6.90
2018-07-11T19:41:20.905Z,5.33
2018-07-11T19:44:00.950Z,6.00
2018-07-11T19:46:37.432Z,11.70
2018-07-11T19:51:56.454Z,5.90
2018-07-11T19:55:47.331Z,4.87
2018-07-11T19:58:16.594Z,6.60
2018-07-11T20:00:45.857Z,8.10
2018-07-11T20:03:15.416Z,6.87
2018-07-11T20:05:53.344Z,7.73
2018-07-11T20:08:14.131Z,5.97
2018-07-11T20:10:43.498Z,6.10
2018-07-11T20:13:12.948Z,6.37
2018-07-11T20:15:41.710Z,4.40
2018-07-11T20:18:10.996Z,5.50
2018-07-11T20:20:40.234Z,6.10
2018-07-11T20:23:09.494Z,3.80
2018-07-11T20:25:38.872Z,6.47
2018-07-11T20:28:08.194Z,3.53
2018-07-11T20:30:37.600Z,7.43
2018-07-11T20:33:07.259Z,6.30
2018-07-11T20:35:36.944Z,4.47
2018-07-11T20:38:06.852Z,6.33
2018-07-11T20:40:36.373Z,4.30
2018-07-11T20:43:05.907Z,4.43
2018-07-11T20:45:35.674Z,6.50
2018-07-11T20:48:04.933Z,5.60
2018-07-11T20:50:34.146Z,5.50
2018-07-11T20:53:03.403Z,4.23
2018-07-11T20:55:33.983Z,4.77
2018-07-11T20:58:14.232Z,5.33
2018-07-11T21:00:54.367Z,5.37
2018-07-11T21:04:42.091Z,3.90
2018-07-11T21:09:29.447Z,7.03
2018-07-11T21:12:36.239Z,6.27
2018-07-11T21:15:16.890Z,4.67
2018-07-11T21:18:01.425Z,3.87
2018-07-11T21:20:30.616Z,7.73
2018-07-11T21:22:59.854Z,5.03
2018-07-11T21:25:29.092Z,7.47
2018-07-11T21:27:58.293Z,4.80
2018-07-11T21:30:27.484Z,7.63
2018-07-11T21:32:56.660Z,4.53
2018-07-11T21:35:25.883Z,9.97
2018-07-11T21:37:55.077Z,4.40
2018-07-11T21:40:24.286Z,6.37
2018-07-11T21:42:53.479Z,6.07
2018-07-11T21:45:22.720Z,4.00
2018-07-11T21:47:51.952Z,5.70
2018-07-11T21:50:21.146Z,7.60
2018-07-11T21:52:50.316Z,6.93
2018-07-11T21:55:19.572Z,5.13
2018-07-11T21:57:48.747Z,5.00
2018-07-11T22:00:28.919Z,8.07
2018-07-11T22:02:58.140Z,5.67
2018-07-11T22:05:27.657Z,5.07
2018-07-11T22:07:57.002Z,4.63
2018-07-11T22:10:26.207Z,4.43
2018-07-11T22:12:55.391Z,4.73
2018-07-11T22:15:24.759Z,5.83
2018-07-11T22:18:04.789Z,5.63
2018-07-11T22:20:33.445Z,6.03
2018-07-11T22:23:01.605Z,7.33
2018-07-11T22:25:29.309Z,4.67
2018-07-11T22:27:56.959Z,6.53
2018-07-11T22:30:24.657Z,7.10
2018-07-11T22:32:52.359Z,4.03
2018-07-11T22:35:20.060Z,5.30
2018-07-11T22:37:47.720Z,5.17
2018-07-11T22:40:15.369Z,6.17
2018-07-11T22:42:43.065Z,7.60
2018-07-11T22:45:10.977Z,6.17
2018-07-11T22:47:38.915Z,7.03
2018-07-11T22:50:06.637Z,6.07
2018-07-11T22:52:34.366Z,4.90
2018-07-11T22:55:02.068Z,5.60
2018-07-11T22:57:29.755Z,5.77
2018-07-11T22:59:57.663Z,6.93
2018-07-11T23:02:25.332Z,7.00
2018-07-11T23:04:53.076Z,6.17
2018-07-11T23:07:20.757Z,7.47
2018-07-11T23:09:48.417Z,5.03
2018-07-11T23:12:16.077Z,4.27
2018-07-11T23:14:43.774Z,7.27
2018-07-11T23:17:11.430Z,5.53
2018-07-11T23:19:39.448Z,6.67
2018-07-11T23:22:07.165Z,6.40
2018-07-11T23:24:35.859Z,5.77
2018-07-11T23:27:03.508Z,6.33
2018-07-11T23:29:31.152Z,3.87
2018-07-11T23:31:58.803Z,5.80
2018-07-11T23:34:26.473Z,5.97
2018-07-11T23:36:54.434Z,8.37
2018-07-11T23:39:22.096Z,5.10
2018-07-11T23:41:49.768Z,3.43
2018-07-11T23:44:17.471Z,5.83
2018-07-11T23:46:45.230Z,2.77
2018-07-11T23:49:12.885Z,7.53
2018-07-11T23:51:40.895Z,5.30
2018-07-11T23:54:08.612Z,5.43
2018-07-11T23:56:36.272Z,4.13
2018-07-11T23:59:03.936Z,6.70
